sensor_id;sensor_type;location;lat;lon;timestamp;temperature;humidity
24148;DHT22;12309;51.450;-2.624;2023-04-03T00:01:13;6.50;99.90
24148;DHT22;12309;51.450;-2.624;2023-04-03T00:03:40;6.40;99.90
24148;DHT22;12309;51.450;-2.624;2023-04-03T00:06:07;6.40;99.90
24148;DHT22;12309;51.450;-2.624;2023-04-03T00:08:34;6.40;99.90
24148;DHT22;12309;51.450;-2.624;2023-04-03T00:11:00;6.40;99.90
24148;DHT22;12309;51.450;-2.624;2023-04-03T00:13:26;6.30;99.90
24148;DHT22;12309;51.450;-2.624;2023-04-03T00:15:51;6.30;99.90
24148;DHT22;12309;51.450;-2.624;2023-04-03T00:18:17;6.20;99.90
24148;DHT22;12309;51.450;-2.624;2023-04-03T00:20:43;6.30;99.90
24148;DHT22;12309;51.450;-2.624;2023-04-03T00:23:09;6.20;99.90
24148;DHT22;12309;51.450;-2.624;2023-04-03T00:25:35;6.20;99.90
24148;DHT22;12309;51.450;-2.624;2023-04-03T00:28:02;6.40;99.90
24148;DHT22;12309;51.450;-2.624;2023-04-03T00:30:28;6.20;99.90
24148;DHT22;12309;51.450;-2.624;2023-04-03T00:32:53;6.10;99.90
24148;DHT22;12309;51.450;-2.624;2023-04-03T00:35:21;6.10;99.90
24148;DHT22;12309;51.450;-2.624;2023-04-03T00:37:47;6.00;99.90
24148;DHT22;12309;51.450;-2.624;2023-04-03T00:40:14;6.10;99.90
24148;DHT22;12309;51.450;-2.624;2023-04-03T00:42:41;6.00;99.90
24148;DHT22;12309;51.450;-2.624;2023-04-03T00:47:37;6.20;99.90
24148;DHT22;12309;51.450;-2.624;2023-04-03T00:50:04;6.00;99.90
24148;DHT22;12309;51.450;-2.624;2023-04-03T00:52:30;6.00;99.90
24148;DHT22;12309;51.450;-2.624;2023-04-03T00:55:03;5.90;99.90
24148;DHT22;12309;51.450;-2.624;2023-04-03T00:57:30;5.90;99.90
24148;DHT22;12309;51.450;-2.624;2023-04-03T01:00:04;5.90;99.90
24148;DHT22;12309;51.450;-2.624;2023-04-03T01:02:31;5.90;99.90
24148;DHT22;12309;51.450;-2.624;2023-04-03T01:04:56;5.90;99.90
24148;DHT22;12309;51.450;-2.624;2023-04-03T01:07:27;5.80;99.90
24148;DHT22;12309;51.450;-2.624;2023-04-03T01:09:57;5.80;99.90
24148;DHT22;12309;51.450;-2.624;2023-04-03T01:12:26;5.80;99.90
24148;DHT22;12309;51.450;-2.624;2023-04-03T01:14:58;5.70;99.90
24148;DHT22;12309;51.450;-2.624;2023-04-03T01:23:12;5.70;99.90
24148;DHT22;12309;51.450;-2.624;2023-04-03T01:25:48;5.60;99.90
24148;DHT22;12309;51.450;-2.624;2023-04-03T01:28:24;5.40;99.90
24148;DHT22;12309;51.450;-2.624;2023-04-03T01:33:44;5.50;99.90
24148;DHT22;12309;51.450;-2.624;2023-04-03T01:36:17;5.30;99.90
24148;DHT22;12309;51.450;-2.624;2023-04-03T01:38:43;6.20;99.90
24148;DHT22;12309;51.450;-2.624;2023-04-03T01:41:09;5.70;99.90
24148;DHT22;12309;51.450;-2.624;2023-04-03T01:43:34;5.50;99.90
24148;DHT22;12309;51.450;-2.624;2023-04-03T01:46:00;5.20;99.90
24148;DHT22;12309;51.450;-2.624;2023-04-03T01:48:26;5.40;99.90
24148;DHT22;12309;51.450;-2.624;2023-04-03T01:50:51;5.40;99.90
24148;DHT22;12309;51.450;-2.624;2023-04-03T01:53:17;5.50;99.90
24148;DHT22;12309;51.450;-2.624;2023-04-03T01:55:42;5.20;99.90
24148;DHT22;12309;51.450;-2.624;2023-04-03T01:58:08;5.30;99.90
24148;DHT22;12309;51.450;-2.624;2023-04-03T02:00:34;5.30;99.90
24148;DHT22;12309;51.450;-2.624;2023-04-03T02:02:59;5.40;99.90
24148;DHT22;12309;51.450;-2.624;2023-04-03T02:05:25;5.20;99.90
24148;DHT22;12309;51.450;-2.624;2023-04-03T02:07:51;5.20;99.90
24148;DHT22;12309;51.450;-2.624;2023-04-03T02:10:16;5.20;99.90
24148;DHT22;12309;51.450;-2.624;2023-04-03T02:12:42;5.20;99.90
24148;DHT22;12309;51.450;-2.624;2023-04-03T02:15:08;5.10;99.90
24148;DHT22;12309;51.450;-2.624;2023-04-03T02:17:34;5.10;99.90
24148;DHT22;12309;51.450;-2.624;2023-04-03T02:20:00;5.10;99.90
24148;DHT22;12309;51.450;-2.624;2023-04-03T02:22:26;5.00;99.90
24148;DHT22;12309;51.450;-2.624;2023-04-03T02:24:52;5.10;99.90
24148;DHT22;12309;51.450;-2.624;2023-04-03T02:27:17;5.10;99.90
24148;DHT22;12309;51.450;-2.624;2023-04-03T02:29:43;5.00;99.90
24148;DHT22;12309;51.450;-2.624;2023-04-03T02:32:09;5.00;99.90
24148;DHT22;12309;51.450;-2.624;2023-04-03T02:34:34;4.90;99.90
24148;DHT22;12309;51.450;-2.624;2023-04-03T02:37:00;5.30;99.90
24148;DHT22;12309;51.450;-2.624;2023-04-03T02:39:26;4.90;99.90
24148;DHT22;12309;51.450;-2.624;2023-04-03T02:41:51;4.20;99.90
24148;DHT22;12309;51.450;-2.624;2023-04-03T02:44:17;4.80;99.90
24148;DHT22;12309;51.450;-2.624;2023-04-03T02:46:44;4.80;99.90
24148;DHT22;12309;51.450;-2.624;2023-04-03T02:49:10;4.80;99.90
24148;DHT22;12309;51.450;-2.624;2023-04-03T02:51:35;4.80;99.90
24148;DHT22;12309;51.450;-2.624;2023-04-03T02:54:01;4.70;99.90
24148;DHT22;12309;51.450;-2.624;2023-04-03T02:56:27;4.80;99.90
24148;DHT22;12309;51.450;-2.624;2023-04-03T02:58:53;4.70;99.90
24148;DHT22;12309;51.450;-2.624;2023-04-03T03:01:18;5.00;99.90
24148;DHT22;12309;51.450;-2.624;2023-04-03T03:03:44;4.70;99.90
24148;DHT22;12309;51.450;-2.624;2023-04-03T03:06:15;4.70;99.90
24148;DHT22;12309;51.450;-2.624;2023-04-03T03:08:42;4.50;99.90
24148;DHT22;12309;51.450;-2.624;2023-04-03T03:11:09;4.60;99.90
24148;DHT22;12309;51.450;-2.624;2023-04-03T03:13:35;4.60;99.90
24148;DHT22;12309;51.450;-2.624;2023-04-03T03:16:01;4.60;99.90
24148;DHT22;12309;51.450;-2.624;2023-04-03T03:18:26;4.60;99.90
24148;DHT22;12309;51.450;-2.624;2023-04-03T03:20:53;4.60;99.90
24148;DHT22;12309;51.450;-2.624;2023-04-03T03:23:20;5.00;99.90
24148;DHT22;12309;51.450;-2.624;2023-04-03T03:25:46;4.60;99.90
24148;DHT22;12309;51.450;-2.624;2023-04-03T03:28:12;4.40;99.90
24148;DHT22;12309;51.450;-2.624;2023-04-03T03:30:38;4.30;99.90
24148;DHT22;12309;51.450;-2.624;2023-04-03T03:33:03;4.30;99.90
24148;DHT22;12309;51.450;-2.624;2023-04-03T03:35:29;4.30;99.90
24148;DHT22;12309;51.450;-2.624;2023-04-03T03:37:55;4.20;99.90
24148;DHT22;12309;51.450;-2.624;2023-04-03T03:40:20;4.10;99.90
24148;DHT22;12309;51.450;-2.624;2023-04-03T03:42:46;4.20;99.90
24148;DHT22;12309;51.450;-2.624;2023-04-03T03:45:11;4.00;99.90
24148;DHT22;12309;51.450;-2.624;2023-04-03T03:50:13;4.00;99.90
24148;DHT22;12309;51.450;-2.624;2023-04-03T03:55:05;3.90;99.90
24148;DHT22;12309;51.450;-2.624;2023-04-03T03:57:31;3.90;99.90
24148;DHT22;12309;51.450;-2.624;2023-04-03T03:59:56;3.80;99.90
24148;DHT22;12309;51.450;-2.624;2023-04-03T04:02:22;3.80;99.90
24148;DHT22;12309;51.450;-2.624;2023-04-03T04:04:48;3.80;99.90
24148;DHT22;12309;51.450;-2.624;2023-04-03T04:07:14;3.90;99.90
24148;DHT22;12309;51.450;-2.624;2023-04-03T04:09:40;3.80;99.90
24148;DHT22;12309;51.450;-2.624;2023-04-03T04:12:05;3.50;99.90
24148;DHT22;12309;51.450;-2.624;2023-04-03T04:14:31;3.80;99.90
24148;DHT22;12309;51.450;-2.624;2023-04-03T04:16:57;3.70;99.90
24148;DHT22;12309;51.450;-2.624;2023-04-03T04:19:22;4.10;99.90
24148;DHT22;12309;51.450;-2.624;2023-04-03T04:21:48;3.80;99.90
24148;DHT22;12309;51.450;-2.624;2023-04-03T04:24:13;3.80;99.90
24148;DHT22;12309;51.450;-2.624;2023-04-03T04:26:39;3.70;99.90
24148;DHT22;12309;51.450;-2.624;2023-04-03T04:29:05;3.60;99.90
24148;DHT22;12309;51.450;-2.624;2023-04-03T04:31:31;3.50;99.90
24148;DHT22;12309;51.450;-2.624;2023-04-03T04:33:56;3.60;99.90
24148;DHT22;12309;51.450;-2.624;2023-04-03T04:36:22;3.60;99.90
24148;DHT22;12309;51.450;-2.624;2023-04-03T04:38:47;3.60;99.90
24148;DHT22;12309;51.450;-2.624;2023-04-03T04:41:13;3.40;99.90
24148;DHT22;12309;51.450;-2.624;2023-04-03T04:43:38;4.20;99.90
24148;DHT22;12309;51.450;-2.624;2023-04-03T04:46:08;3.70;99.90
24148;DHT22;12309;51.450;-2.624;2023-04-03T04:48:36;3.60;99.90
24148;DHT22;12309;51.450;-2.624;2023-04-03T04:51:01;3.70;99.90
24148;DHT22;12309;51.450;-2.624;2023-04-03T04:53:27;4.10;99.90
24148;DHT22;12309;51.450;-2.624;2023-04-03T04:55:53;3.60;99.90
24148;DHT22;12309;51.450;-2.624;2023-04-03T04:58:19;6.30;99.90
24148;DHT22;12309;51.450;-2.624;2023-04-03T05:00:45;3.80;99.90
24148;DHT22;12309;51.450;-2.624;2023-04-03T05:03:11;3.60;99.90
24148;DHT22;12309;51.450;-2.624;2023-04-03T05:05:36;3.80;99.90
24148;DHT22;12309;51.450;-2.624;2023-04-03T05:08:03;3.60;99.90
24148;DHT22;12309;51.450;-2.624;2023-04-03T05:10:29;3.70;99.90
24148;DHT22;12309;51.450;-2.624;2023-04-03T05:12:55;3.70;99.90
24148;DHT22;12309;51.450;-2.624;2023-04-03T05:15:20;3.50;99.90
24148;DHT22;12309;51.450;-2.624;2023-04-03T05:17:46;3.70;99.90
24148;DHT22;12309;51.450;-2.624;2023-04-03T05:20:12;3.60;99.90
24148;DHT22;12309;51.450;-2.624;2023-04-03T05:22:38;3.70;99.90
24148;DHT22;12309;51.450;-2.624;2023-04-03T05:25:04;3.60;99.90
24148;DHT22;12309;51.450;-2.624;2023-04-03T05:27:30;3.70;99.90
24148;DHT22;12309;51.450;-2.624;2023-04-03T05:29:56;3.70;99.90
24148;DHT22;12309;51.450;-2.624;2023-04-03T05:32:23;3.70;99.90
24148;DHT22;12309;51.450;-2.624;2023-04-03T05:34:49;3.80;99.90
24148;DHT22;12309;51.450;-2.624;2023-04-03T05:37:15;3.60;99.90
24148;DHT22;12309;51.450;-2.624;2023-04-03T05:39:40;3.80;99.90
24148;DHT22;12309;51.450;-2.624;2023-04-03T05:42:07;3.80;99.90
24148;DHT22;12309;51.450;-2.624;2023-04-03T05:44:33;4.60;99.90
24148;DHT22;12309;51.450;-2.624;2023-04-03T05:46:59;3.80;99.90
24148;DHT22;12309;51.450;-2.624;2023-04-03T05:49:24;3.80;99.90
24148;DHT22;12309;51.450;-2.624;2023-04-03T05:51:50;3.70;99.90
24148;DHT22;12309;51.450;-2.624;2023-04-03T05:54:23;3.70;99.90
24148;DHT22;12309;51.450;-2.624;2023-04-03T05:56:49;3.70;99.90
24148;DHT22;12309;51.450;-2.624;2023-04-03T05:59:16;3.80;99.90
24148;DHT22;12309;51.450;-2.624;2023-04-03T06:01:42;3.80;99.90
24148;DHT22;12309;51.450;-2.624;2023-04-03T06:04:08;3.80;99.90
24148;DHT22;12309;51.450;-2.624;2023-04-03T06:06:55;3.50;99.90
24148;DHT22;12309;51.450;-2.624;2023-04-03T06:09:24;3.90;99.90
24148;DHT22;12309;51.450;-2.624;2023-04-03T06:11:52;3.80;99.90
24148;DHT22;12309;51.450;-2.624;2023-04-03T06:14:18;3.90;99.90
24148;DHT22;12309;51.450;-2.624;2023-04-03T06:16:44;3.80;99.90
24148;DHT22;12309;51.450;-2.624;2023-04-03T06:19:10;3.80;99.90
24148;DHT22;12309;51.450;-2.624;2023-04-03T06:21:36;3.90;99.90
24148;DHT22;12309;51.450;-2.624;2023-04-03T06:24:07;4.00;99.90
24148;DHT22;12309;51.450;-2.624;2023-04-03T06:26:33;3.90;99.90
24148;DHT22;12309;51.450;-2.624;2023-04-03T06:28:59;3.90;99.90
24148;DHT22;12309;51.450;-2.624;2023-04-03T06:31:25;3.90;99.90
24148;DHT22;12309;51.450;-2.624;2023-04-03T06:33:51;4.00;99.90
24148;DHT22;12309;51.450;-2.624;2023-04-03T06:36:19;4.00;99.90
24148;DHT22;12309;51.450;-2.624;2023-04-03T06:38:46;4.00;99.90
24148;DHT22;12309;51.450;-2.624;2023-04-03T06:41:12;4.10;99.90
24148;DHT22;12309;51.450;-2.624;2023-04-03T06:43:38;4.10;99.90
24148;DHT22;12309;51.450;-2.624;2023-04-03T06:46:03;4.10;99.90
24148;DHT22;12309;51.450;-2.624;2023-04-03T06:48:29;4.10;99.90
24148;DHT22;12309;51.450;-2.624;2023-04-03T06:50:55;4.10;99.90
24148;DHT22;12309;51.450;-2.624;2023-04-03T06:53:20;4.10;99.90
24148;DHT22;12309;51.450;-2.624;2023-04-03T06:55:46;4.10;99.90
24148;DHT22;12309;51.450;-2.624;2023-04-03T06:58:13;4.10;99.90
24148;DHT22;12309;51.450;-2.624;2023-04-03T07:00:40;4.20;99.90
24148;DHT22;12309;51.450;-2.624;2023-04-03T07:03:06;4.20;99.90
24148;DHT22;12309;51.450;-2.624;2023-04-03T07:05:32;4.30;99.90
24148;DHT22;12309;51.450;-2.624;2023-04-03T07:07:57;4.30;99.90
24148;DHT22;12309;51.450;-2.624;2023-04-03T07:10:23;4.40;99.90
24148;DHT22;12309;51.450;-2.624;2023-04-03T07:12:49;4.30;99.90
24148;DHT22;12309;51.450;-2.624;2023-04-03T07:15:14;4.40;99.90
24148;DHT22;12309;51.450;-2.624;2023-04-03T07:17:40;4.40;99.90
24148;DHT22;12309;51.450;-2.624;2023-04-03T07:20:06;4.50;99.90
24148;DHT22;12309;51.450;-2.624;2023-04-03T07:22:32;4.50;99.90
24148;DHT22;12309;51.450;-2.624;2023-04-03T07:24:58;4.60;99.90
24148;DHT22;12309;51.450;-2.624;2023-04-03T07:27:25;5.00;99.90
24148;DHT22;12309;51.450;-2.624;2023-04-03T07:29:51;4.70;99.90
24148;DHT22;12309;51.450;-2.624;2023-04-03T07:32:16;5.20;99.90
24148;DHT22;12309;51.450;-2.624;2023-04-03T07:34:43;4.80;99.90
24148;DHT22;12309;51.450;-2.624;2023-04-03T07:37:09;5.10;99.90
24148;DHT22;12309;51.450;-2.624;2023-04-03T07:39:35;4.60;99.90
24148;DHT22;12309;51.450;-2.624;2023-04-03T07:42:01;4.90;99.90
24148;DHT22;12309;51.450;-2.624;2023-04-03T07:44:27;4.90;99.90
24148;DHT22;12309;51.450;-2.624;2023-04-03T07:46:53;4.90;99.90
24148;DHT22;12309;51.450;-2.624;2023-04-03T07:49:20;5.20;99.90
24148;DHT22;12309;51.450;-2.624;2023-04-03T07:51:48;5.80;99.90
24148;DHT22;12309;51.450;-2.624;2023-04-03T07:54:14;5.50;99.90
24148;DHT22;12309;51.450;-2.624;2023-04-03T07:56:40;5.50;99.90
24148;DHT22;12309;51.450;-2.624;2023-04-03T07:59:08;5.70;99.90
24148;DHT22;12309;51.450;-2.624;2023-04-03T08:01:34;5.70;99.90
24148;DHT22;12309;51.450;-2.624;2023-04-03T08:04:00;5.80;99.90
24148;DHT22;12309;51.450;-2.624;2023-04-03T08:06:26;5.80;99.90
24148;DHT22;12309;51.450;-2.624;2023-04-03T08:08:52;6.00;99.90
24148;DHT22;12309;51.450;-2.624;2023-04-03T08:11:18;6.10;99.90
24148;DHT22;12309;51.450;-2.624;2023-04-03T08:13:44;6.10;99.90
24148;DHT22;12309;51.450;-2.624;2023-04-03T08:16:15;6.40;99.90
24148;DHT22;12309;51.450;-2.624;2023-04-03T08:18:42;6.60;99.90
24148;DHT22;12309;51.450;-2.624;2023-04-03T08:21:09;7.10;99.90
24148;DHT22;12309;51.450;-2.624;2023-04-03T08:23:35;7.70;99.90
24148;DHT22;12309;51.450;-2.624;2023-04-03T08:26:12;9.70;99.90
24148;DHT22;12309;51.450;-2.624;2023-04-03T08:28:38;11.50;99.90
24148;DHT22;12309;51.450;-2.624;2023-04-03T08:31:06;12.40;99.90
24148;DHT22;12309;51.450;-2.624;2023-04-03T08:33:33;13.50;99.90
24148;DHT22;12309;51.450;-2.624;2023-04-03T08:35:59;13.60;99.90
24148;DHT22;12309;51.450;-2.624;2023-04-03T08:38:25;11.80;99.90
24148;DHT22;12309;51.450;-2.624;2023-04-03T08:41:10;12.40;99.90
24148;DHT22;12309;51.450;-2.624;2023-04-03T08:46:11;13.00;99.90
24148;DHT22;12309;51.450;-2.624;2023-04-03T08:48:43;13.30;99.90
24148;DHT22;12309;51.450;-2.624;2023-04-03T08:51:14;14.50;99.90
24148;DHT22;12309;51.450;-2.624;2023-04-03T08:53:44;14.60;99.90
24148;DHT22;12309;51.450;-2.624;2023-04-03T08:56:14;14.90;99.90
24148;DHT22;12309;51.450;-2.624;2023-04-03T08:58:50;13.60;99.90
24148;DHT22;12309;51.450;-2.624;2023-04-03T09:01:34;14.40;99.90
24148;DHT22;12309;51.450;-2.624;2023-04-03T09:04:01;14.30;99.90
24148;DHT22;12309;51.450;-2.624;2023-04-03T09:06:31;14.40;99.90
24148;DHT22;12309;51.450;-2.624;2023-04-03T09:11:44;14.60;99.90
24148;DHT22;12309;51.450;-2.624;2023-04-03T09:22:34;12.80;99.90
24148;DHT22;12309;51.450;-2.624;2023-04-03T09:25:23;13.50;99.90
24148;DHT22;12309;51.450;-2.624;2023-04-03T09:27:51;13.80;99.90
24148;DHT22;12309;51.450;-2.624;2023-04-03T09:30:23;13.60;99.90
24148;DHT22;12309;51.450;-2.624;2023-04-03T09:32:51;14.90;99.90
24148;DHT22;12309;51.450;-2.624;2023-04-03T09:35:26;12.50;99.90
24148;DHT22;12309;51.450;-2.624;2023-04-03T09:40:37;13.30;99.90
24148;DHT22;12309;51.450;-2.624;2023-04-03T09:43:29;13.40;99.90
24148;DHT22;12309;51.450;-2.624;2023-04-03T09:46:16;13.30;99.90
24148;DHT22;12309;51.450;-2.624;2023-04-03T09:48:51;15.10;99.90
24148;DHT22;12309;51.450;-2.624;2023-04-03T09:51:17;15.30;99.90
24148;DHT22;12309;51.450;-2.624;2023-04-03T09:53:44;16.30;99.90
24148;DHT22;12309;51.450;-2.624;2023-04-03T09:58:47;15.40;99.90
24148;DHT22;12309;51.450;-2.624;2023-04-03T10:01:26;15.60;99.90
24148;DHT22;12309;51.450;-2.624;2023-04-03T10:04:22;13.30;99.90
24148;DHT22;12309;51.450;-2.624;2023-04-03T10:06:51;14.70;99.90
24148;DHT22;12309;51.450;-2.624;2023-04-03T10:09:31;14.00;99.90
24148;DHT22;12309;51.450;-2.624;2023-04-03T10:19:50;14.50;99.90
24148;DHT22;12309;51.450;-2.624;2023-04-03T10:25:10;15.90;99.90
24148;DHT22;12309;51.450;-2.624;2023-04-03T10:30:34;15.30;99.90
24148;DHT22;12309;51.450;-2.624;2023-04-03T10:33:18;14.50;99.90
24148;DHT22;12309;51.450;-2.624;2023-04-03T10:38:43;16.00;99.90
24148;DHT22;12309;51.450;-2.624;2023-04-03T10:49:47;16.60;99.90
24148;DHT22;12309;51.450;-2.624;2023-04-03T10:52:42;14.70;99.90
24148;DHT22;12309;51.450;-2.624;2023-04-03T10:57:40;15.00;99.90
24148;DHT22;12309;51.450;-2.624;2023-04-03T11:00:14;17.60;99.90
24148;DHT22;12309;51.450;-2.624;2023-04-03T11:03:03;18.40;99.90
24148;DHT22;12309;51.450;-2.624;2023-04-03T11:05:36;17.70;99.90
24148;DHT22;12309;51.450;-2.624;2023-04-03T11:08:28;17.30;99.90
24148;DHT22;12309;51.450;-2.624;2023-04-03T11:11:05;17.10;99.90
24148;DHT22;12309;51.450;-2.624;2023-04-03T11:14:01;14.70;99.90
24148;DHT22;12309;51.450;-2.624;2023-04-03T11:16:31;15.00;99.90
24148;DHT22;12309;51.450;-2.624;2023-04-03T11:19:05;16.40;99.90
24148;DHT22;12309;51.450;-2.624;2023-04-03T11:21:57;17.70;99.90
24148;DHT22;12309;51.450;-2.624;2023-04-03T11:24:31;17.50;99.90
24148;DHT22;12309;51.450;-2.624;2023-04-03T11:26:58;18.10;99.90
24148;DHT22;12309;51.450;-2.624;2023-04-03T11:29:31;16.90;99.90
24148;DHT22;12309;51.450;-2.624;2023-04-03T11:32:29;16.90;99.90
24148;DHT22;12309;51.450;-2.624;2023-04-03T11:35:01;16.80;99.90
24148;DHT22;12309;51.450;-2.624;2023-04-03T11:37:37;18.50;99.90
24148;DHT22;12309;51.450;-2.624;2023-04-03T11:42:43;18.50;93.40
24148;DHT22;12309;51.450;-2.624;2023-04-03T11:47:55;16.90;95.20
24148;DHT22;12309;51.450;-2.624;2023-04-03T11:50:41;17.10;99.90
24148;DHT22;12309;51.450;-2.624;2023-04-03T12:16:26;16.30;99.90
24148;DHT22;12309;51.450;-2.624;2023-04-03T12:29:27;17.10;99.90
24148;DHT22;12309;51.450;-2.624;2023-04-03T12:40:37;19.60;77.70
24148;DHT22;12309;51.450;-2.624;2023-04-03T12:45:44;21.00;57.30
24148;DHT22;12309;51.450;-2.624;2023-04-03T12:48:17;21.40;28.20
24148;DHT22;12309;51.450;-2.624;2023-04-03T12:50:45;17.00;32.50
24148;DHT22;12309;51.450;-2.624;2023-04-03T12:53:18;16.90;27.40
24148;DHT22;12309;51.450;-2.624;2023-04-03T12:55:44;18.30;41.20
24148;DHT22;12309;51.450;-2.624;2023-04-03T12:58:16;20.30;40.10
24148;DHT22;12309;51.450;-2.624;2023-04-03T13:00:46;20.70;34.90
24148;DHT22;12309;51.450;-2.624;2023-04-03T13:03:25;22.00;28.50
24148;DHT22;12309;51.450;-2.624;2023-04-03T13:05:54;23.20;28.70
24148;DHT22;12309;51.450;-2.624;2023-04-03T13:08:22;22.70;1.00
24148;DHT22;12309;51.450;-2.624;2023-04-03T13:11:06;22.70;1.00
24148;DHT22;12309;51.450;-2.624;2023-04-03T13:13:35;23.30;1.00
24148;DHT22;12309;51.450;-2.624;2023-04-03T13:16:08;23.90;1.00
24148;DHT22;12309;51.450;-2.624;2023-04-03T13:18:36;24.30;1.00
24148;DHT22;12309;51.450;-2.624;2023-04-03T13:23:28;20.80;1.00
24148;DHT22;12309;51.450;-2.624;2023-04-03T13:25:55;18.30;1.00
24148;DHT22;12309;51.450;-2.624;2023-04-03T13:28:23;18.50;1.00
24148;DHT22;12309;51.450;-2.624;2023-04-03T13:31:21;19.90;1.00
24148;DHT22;12309;51.450;-2.624;2023-04-03T13:34:09;18.70;4.30
24148;DHT22;12309;51.450;-2.624;2023-04-03T13:36:59;20.80;8.40
24148;DHT22;12309;51.450;-2.624;2023-04-03T13:39:30;20.90;1.00
24148;DHT22;12309;51.450;-2.624;2023-04-03T13:42:02;20.70;1.00
24148;DHT22;12309;51.450;-2.624;2023-04-03T13:44:39;19.60;1.00
24148;DHT22;12309;51.450;-2.624;2023-04-03T13:47:18;19.80;1.00
24148;DHT22;12309;51.450;-2.624;2023-04-03T13:52:46;20.90;1.00
24148;DHT22;12309;51.450;-2.624;2023-04-03T13:55:18;21.40;1.00
24148;DHT22;12309;51.450;-2.624;2023-04-03T14:03:39;20.80;1.00
24148;DHT22;12309;51.450;-2.624;2023-04-03T14:06:06;21.20;1.00
24148;DHT22;12309;51.450;-2.624;2023-04-03T14:08:32;21.80;1.00
24148;DHT22;12309;51.450;-2.624;2023-04-03T14:10:57;22.40;1.00
24148;DHT22;12309;51.450;-2.624;2023-04-03T14:13:23;22.20;1.00
24148;DHT22;12309;51.450;-2.624;2023-04-03T14:15:50;22.50;1.00
24148;DHT22;12309;51.450;-2.624;2023-04-03T14:18:18;23.00;1.00
24148;DHT22;12309;51.450;-2.624;2023-04-03T14:20:44;23.60;1.00
24148;DHT22;12309;51.450;-2.624;2023-04-03T14:23:10;23.60;1.00
24148;DHT22;12309;51.450;-2.624;2023-04-03T14:25:37;21.40;1.00
24148;DHT22;12309;51.450;-2.624;2023-04-03T14:28:14;20.30;1.00
24148;DHT22;12309;51.450;-2.624;2023-04-03T14:30:40;19.80;1.00
24148;DHT22;12309;51.450;-2.624;2023-04-03T14:33:06;19.90;1.00
24148;DHT22;12309;51.450;-2.624;2023-04-03T14:35:32;20.30;1.00
24148;DHT22;12309;51.450;-2.624;2023-04-03T14:37:57;21.20;1.00
24148;DHT22;12309;51.450;-2.624;2023-04-03T14:40:25;22.20;1.00
24148;DHT22;12309;51.450;-2.624;2023-04-03T14:42:52;22.00;1.00
24148;DHT22;12309;51.450;-2.624;2023-04-03T14:45:21;22.20;1.00
24148;DHT22;12309;51.450;-2.624;2023-04-03T14:47:47;21.10;1.00
24148;DHT22;12309;51.450;-2.624;2023-04-03T14:50:17;20.70;1.00
24148;DHT22;12309;51.450;-2.624;2023-04-03T14:52:44;21.90;1.00
24148;DHT22;12309;51.450;-2.624;2023-04-03T14:55:12;21.60;1.00
24148;DHT22;12309;51.450;-2.624;2023-04-03T14:57:40;21.80;1.00
24148;DHT22;12309;51.450;-2.624;2023-04-03T15:00:11;21.60;1.00
24148;DHT22;12309;51.450;-2.624;2023-04-03T15:02:38;21.10;1.00
24148;DHT22;12309;51.450;-2.624;2023-04-03T15:05:06;21.10;1.00
24148;DHT22;12309;51.450;-2.624;2023-04-03T15:07:35;20.50;1.00
24148;DHT22;12309;51.450;-2.624;2023-04-03T15:10:13;20.90;1.00
24148;DHT22;12309;51.450;-2.624;2023-04-03T15:12:40;21.90;1.00
24148;DHT22;12309;51.450;-2.624;2023-04-03T15:15:06;21.80;1.00
24148;DHT22;12309;51.450;-2.624;2023-04-03T15:17:32;20.70;1.00
24148;DHT22;12309;51.450;-2.624;2023-04-03T15:19:59;20.50;1.00
24148;DHT22;12309;51.450;-2.624;2023-04-03T15:22:25;20.40;1.00
24148;DHT22;12309;51.450;-2.624;2023-04-03T15:24:50;20.80;1.00
24148;DHT22;12309;51.450;-2.624;2023-04-03T15:27:16;20.60;1.00
24148;DHT22;12309;51.450;-2.624;2023-04-03T15:29:43;21.00;1.00
24148;DHT22;12309;51.450;-2.624;2023-04-03T15:32:09;20.50;1.00
24148;DHT22;12309;51.450;-2.624;2023-04-03T15:34:35;20.80;1.00
24148;DHT22;12309;51.450;-2.624;2023-04-03T15:37:01;20.60;1.00
24148;DHT22;12309;51.450;-2.624;2023-04-03T15:39:26;20.10;1.00
24148;DHT22;12309;51.450;-2.624;2023-04-03T15:41:52;20.90;1.00
24148;DHT22;12309;51.450;-2.624;2023-04-03T15:44:19;21.00;1.00
24148;DHT22;12309;51.450;-2.624;2023-04-03T15:46:49;21.30;1.00
24148;DHT22;12309;51.450;-2.624;2023-04-03T15:49:19;21.30;1.00
24148;DHT22;12309;51.450;-2.624;2023-04-03T15:51:46;21.90;1.00
24148;DHT22;12309;51.450;-2.624;2023-04-03T15:54:11;22.10;1.00
24148;DHT22;12309;51.450;-2.624;2023-04-03T15:56:37;20.90;1.00
24148;DHT22;12309;51.450;-2.624;2023-04-03T15:59:03;19.40;1.00
24148;DHT22;12309;51.450;-2.624;2023-04-03T16:01:29;19.90;1.00
24148;DHT22;12309;51.450;-2.624;2023-04-03T16:03:54;20.50;1.00
24148;DHT22;12309;51.450;-2.624;2023-04-03T16:06:20;20.10;1.00
24148;DHT22;12309;51.450;-2.624;2023-04-03T16:08:47;20.10;1.00
24148;DHT22;12309;51.450;-2.624;2023-04-03T16:11:14;20.30;1.00
24148;DHT22;12309;51.450;-2.624;2023-04-03T16:13:40;18.70;1.00
24148;DHT22;12309;51.450;-2.624;2023-04-03T16:16:06;19.50;1.00
24148;DHT22;12309;51.450;-2.624;2023-04-03T16:18:34;17.80;1.00
24148;DHT22;12309;51.450;-2.624;2023-04-03T16:21:00;17.60;1.00
24148;DHT22;12309;51.450;-2.624;2023-04-03T16:23:26;17.90;1.00
24148;DHT22;12309;51.450;-2.624;2023-04-03T16:25:52;18.40;1.00
24148;DHT22;12309;51.450;-2.624;2023-04-03T16:28:17;19.40;1.00
24148;DHT22;12309;51.450;-2.624;2023-04-03T16:30:47;20.40;1.00
24148;DHT22;12309;51.450;-2.624;2023-04-03T16:33:14;19.70;1.00
24148;DHT22;12309;51.450;-2.624;2023-04-03T16:35:40;20.10;1.00
24148;DHT22;12309;51.450;-2.624;2023-04-03T16:38:07;21.00;1.00
24148;DHT22;12309;51.450;-2.624;2023-04-03T16:40:33;20.60;1.00
24148;DHT22;12309;51.450;-2.624;2023-04-03T16:43:00;20.40;1.00
24148;DHT22;12309;51.450;-2.624;2023-04-03T16:45:26;20.20;1.00
24148;DHT22;12309;51.450;-2.624;2023-04-03T16:47:52;20.30;1.00
24148;DHT22;12309;51.450;-2.624;2023-04-03T16:50:18;19.30;1.00
24148;DHT22;12309;51.450;-2.624;2023-04-03T16:52:45;18.80;1.00
24148;DHT22;12309;51.450;-2.624;2023-04-03T16:55:15;18.00;1.00
24148;DHT22;12309;51.450;-2.624;2023-04-03T16:57:41;18.30;1.00
24148;DHT22;12309;51.450;-2.624;2023-04-03T17:00:07;18.20;1.00
24148;DHT22;12309;51.450;-2.624;2023-04-03T17:02:34;17.90;1.00
24148;DHT22;12309;51.450;-2.624;2023-04-03T17:04:59;17.60;1.00
24148;DHT22;12309;51.450;-2.624;2023-04-03T17:07:25;17.30;1.00
24148;DHT22;12309;51.450;-2.624;2023-04-03T17:09:51;17.10;1.00
24148;DHT22;12309;51.450;-2.624;2023-04-03T17:12:19;17.20;11.90
24148;DHT22;12309;51.450;-2.624;2023-04-03T17:14:44;16.80;17.00
24148;DHT22;12309;51.450;-2.624;2023-04-03T17:17:12;16.90;35.10
24148;DHT22;12309;51.450;-2.624;2023-04-03T17:19:39;16.80;36.20
24148;DHT22;12309;51.450;-2.624;2023-04-03T17:22:07;17.20;36.50
24148;DHT22;12309;51.450;-2.624;2023-04-03T17:24:34;17.80;40.90
24148;DHT22;12309;51.450;-2.624;2023-04-03T17:26:59;17.70;36.50
24148;DHT22;12309;51.450;-2.624;2023-04-03T17:29:25;17.90;35.70
24148;DHT22;12309;51.450;-2.624;2023-04-03T17:31:51;17.70;27.60
24148;DHT22;12309;51.450;-2.624;2023-04-03T17:34:17;17.90;32.20
24148;DHT22;12309;51.450;-2.624;2023-04-03T17:39:09;17.70;30.50
24148;DHT22;12309;51.450;-2.624;2023-04-03T17:41:34;17.60;30.80